createdAt,value
2018-04-29T00:01:00.031Z,21.43
2018-04-29T00:06:00.983Z,20.10
2018-04-29T00:11:01.958Z,20.90
2018-04-29T00:16:02.941Z,22.20
2018-04-29T00:21:03.956Z,21.03
2018-04-29T00:26:04.958Z,20.90
2018-04-29T00:31:05.939Z,20.07
2018-04-29T00:36:06.909Z,21.10
2018-04-29T00:41:07.888Z,21.60
2018-04-29T00:46:08.904Z,20.73
2018-04-29T00:51:09.876Z,21.20
2018-04-29T00:56:10.847Z,20.60
2018-04-29T01:01:11.808Z,21.07
2018-04-29T01:06:12.791Z,22.43
2018-04-29T01:11:13.763Z,21.83
2018-04-29T01:16:14.736Z,22.10
2018-04-29T01:21:15.729Z,23.43
2018-04-29T01:26:16.733Z,23.73
2018-04-29T01:31:17.693Z,24.13
2018-04-29T01:36:18.671Z,23.13
2018-04-29T01:41:19.636Z,23.47
2018-04-29T01:46:20.586Z,24.97
2018-04-29T01:51:21.528Z,24.13
2018-04-29T01:56:22.521Z,23.27
2018-04-29T02:01:23.476Z,23.57
2018-04-29T02:06:24.441Z,24.40
2018-04-29T02:11:25.388Z,25.47
2018-04-29T02:16:26.350Z,23.57
2018-04-29T02:21:27.334Z,26.50
2018-04-29T02:26:28.299Z,25.07
2018-04-29T02:31:29.306Z,23.60
2018-04-29T02:36:30.230Z,25.87
2018-04-29T02:41:31.212Z,24.20
2018-04-29T02:46:32.186Z,25.83
2018-04-29T02:51:33.160Z,25.83
2018-04-29T02:56:34.113Z,26.17
2018-04-29T03:01:35.063Z,27.87
2018-04-29T03:06:36.004Z,25.00
2018-04-29T03:11:36.964Z,27.70
2018-04-29T03:16:37.928Z,27.43
2018-04-29T03:21:38.912Z,27.10
2018-04-29T03:26:39.864Z,27.60
2018-04-29T03:31:40.812Z,26.93
2018-04-29T03:36:41.772Z,28.13
2018-04-29T03:41:42.717Z,25.27
2018-04-29T03:46:43.674Z,26.40
2018-04-29T03:51:44.605Z,23.03
2018-04-29T03:56:45.556Z,27.10
2018-04-29T04:01:58.960Z,25.27
2018-04-29T04:06:59.964Z,27.00
2018-04-29T04:12:00.920Z,28.13
2018-04-29T04:17:01.898Z,29.13
2018-04-29T04:22:02.866Z,27.07
2018-04-29T04:27:03.851Z,29.77
2018-04-29T04:32:04.807Z,30.40
2018-04-29T04:37:05.780Z,35.10
2018-04-29T04:42:06.753Z,32.30
2018-04-29T04:47:07.712Z,34.97
2018-04-29T04:52:08.660Z,41.00
2018-04-29T04:57:09.614Z,36.07
2018-04-29T05:02:10.594Z,37.27
2018-04-29T05:07:11.540Z,36.63
2018-04-29T05:12:12.507Z,38.23
2018-04-29T05:17:13.482Z,37.53
2018-04-29T05:22:14.638Z,37.90
2018-04-29T05:27:15.606Z,35.50
2018-04-29T05:32:16.600Z,35.60
2018-04-29T05:37:17.540Z,34.90
2018-04-29T05:42:18.523Z,32.80
2018-04-29T05:47:19.986Z,32.73
2018-04-29T05:52:20.960Z,33.00
2018-04-29T05:57:22.250Z,34.17
2018-04-29T06:02:23.238Z,33.87
2018-04-29T06:07:24.196Z,34.80
2018-04-29T06:12:25.187Z,35.00
2018-04-29T06:17:26.130Z,33.87
2018-04-29T06:22:27.127Z,38.77
2018-04-29T06:27:28.099Z,37.20
2018-04-29T06:32:29.111Z,39.77
2018-04-29T06:37:30.071Z,40.53
2018-04-29T06:42:31.060Z,39.27
2018-04-29T06:47:32.004Z,40.60
2018-04-29T06:52:32.963Z,41.30
2018-04-29T06:57:33.930Z,43.30
2018-04-29T07:02:34.882Z,41.13
2018-04-29T07:07:35.850Z,45.67
2018-04-29T07:12:36.813Z,50.53
2018-04-29T07:17:37.786Z,52.57
2018-04-29T07:22:38.812Z,52.73
2018-04-29T07:27:39.805Z,51.37
2018-04-29T07:32:40.825Z,52.03
2018-04-29T07:37:41.856Z,46.87
2018-04-29T07:42:42.825Z,46.50
2018-04-29T07:47:43.828Z,44.97
2018-04-29T07:52:44.855Z,49.60
2018-04-29T07:57:45.801Z,44.53
2018-04-29T08:02:46.777Z,43.67
2018-04-29T08:07:47.767Z,42.23
2018-04-29T08:12:48.938Z,42.27
2018-04-29T08:17:49.905Z,45.40
2018-04-29T08:22:51.559Z,50.20
2018-04-29T08:27:52.536Z,48.87
2018-04-29T08:32:53.510Z,48.77
2018-04-29T08:37:54.552Z,44.80
2018-04-29T08:42:55.568Z,45.57
2018-04-29T08:47:56.563Z,47.53
2018-04-29T08:52:57.547Z,47.67
2018-04-29T08:57:59.383Z,49.33
2018-04-29T09:03:00.340Z,49.27
2018-04-29T09:08:01.363Z,49.80
2018-04-29T09:13:02.359Z,50.87
2018-04-29T09:18:03.360Z,52.93
2018-04-29T09:23:04.416Z,51.30
2018-04-29T09:28:05.411Z,52.43
2018-04-29T09:33:06.391Z,52.87
2018-04-29T09:38:07.392Z,53.67
2018-04-29T09:43:08.392Z,51.90
2018-04-29T09:48:09.369Z,51.17
2018-04-29T09:53:10.361Z,52.87
2018-04-29T09:58:11.306Z,48.50
2018-04-29T10:03:12.274Z,47.70
2018-04-29T10:08:13.280Z,49.47
2018-04-29T10:13:14.253Z,50.43
2018-04-29T10:18:15.261Z,47.90
2018-04-29T10:23:16.279Z,52.03
2018-04-29T10:28:17.250Z,49.17
2018-04-29T10:33:18.252Z,49.60
2018-04-29T10:38:19.222Z,49.97
2018-04-29T10:43:20.199Z,45.40
2018-04-29T10:48:21.215Z,45.47
2018-04-29T10:53:22.174Z,47.50
2018-04-29T10:58:23.148Z,44.47
2018-04-29T11:03:24.145Z,47.10
2018-04-29T11:08:25.152Z,44.57
2018-04-29T11:13:26.141Z,46.33
2018-04-29T11:18:27.142Z,44.23
2018-04-29T11:23:28.169Z,45.40
2018-04-29T11:28:29.170Z,44.67
2018-04-29T11:33:30.180Z,45.73
2018-04-29T11:38:38.103Z,46.17
2018-04-29T11:43:39.071Z,42.17
2018-04-29T11:48:40.058Z,41.47
2018-04-29T11:53:41.040Z,38.27
2018-04-29T11:58:42.020Z,38.43
2018-04-29T12:03:43.009Z,38.87
2018-04-29T12:08:43.964Z,39.77
2018-04-29T12:13:44.960Z,36.73
2018-04-29T12:18:45.939Z,38.47
2018-04-29T12:23:46.962Z,35.13
2018-04-29T12:28:47.924Z,39.23
2018-04-29T12:33:48.885Z,36.63
2018-04-29T12:38:49.963Z,38.70
2018-04-29T12:43:50.939Z,40.43
2018-04-29T12:48:51.943Z,38.63
2018-04-29T12:53:52.937Z,38.30
2018-04-29T12:58:53.912Z,36.60
2018-04-29T13:03:54.906Z,38.60
2018-04-29T13:08:55.881Z,38.00
2018-04-29T13:13:56.912Z,40.03
2018-04-29T13:18:57.922Z,37.63
2018-04-29T13:23:58.988Z,34.37
2018-04-29T13:28:59.959Z,35.47
2018-04-29T13:34:00.938Z,37.23
2018-04-29T13:39:01.920Z,40.50
2018-04-29T13:44:02.899Z,41.23
2018-04-29T13:49:03.866Z,43.50
2018-04-29T13:54:04.865Z,43.50
2018-04-29T13:59:05.877Z,41.83
2018-04-29T14:04:06.870Z,43.77
2018-04-29T14:09:07.857Z,43.40
2018-04-29T14:14:08.855Z,47.40
2018-04-29T14:19:09.877Z,51.50
2018-04-29T14:24:10.917Z,48.50
2018-04-29T14:29:11.937Z,49.37
2018-04-29T14:34:12.945Z,47.90
2018-04-29T14:39:13.918Z,41.00
2018-04-29T14:44:14.918Z,39.17
2018-04-29T14:49:15.885Z,38.80
2018-04-29T14:54:16.880Z,38.07
2018-04-29T14:59:17.871Z,36.90
2018-04-29T15:04:18.884Z,38.20
2018-04-29T15:09:19.849Z,42.33
2018-04-29T15:14:20.851Z,38.60
2018-04-29T15:19:21.848Z,42.40
2018-04-29T15:24:22.941Z,42.60
2018-04-29T15:29:23.932Z,40.20
2018-04-29T15:34:24.956Z,39.40
2018-04-29T15:39:25.977Z,43.07
2018-04-29T15:44:26.981Z,42.57
2018-04-29T15:49:27.977Z,42.53
2018-04-29T15:54:28.950Z,45.63
2018-04-29T15:59:29.928Z,47.93
2018-04-29T16:04:30.917Z,45.37
2018-04-29T16:09:31.911Z,43.20
2018-04-29T16:14:32.913Z,43.87
2018-04-29T16:19:33.939Z,41.73
2018-04-29T16:24:35.023Z,44.10
2018-04-29T16:29:36.013Z,43.37
2018-04-29T16:34:37.127Z,42.77
2018-04-29T16:39:38.143Z,45.83
2018-04-29T16:44:39.167Z,42.00
2018-04-29T16:49:40.233Z,44.80
2018-04-29T16:54:41.314Z,43.50
2018-04-29T16:59:42.362Z,42.10
2018-04-29T17:04:43.401Z,43.17
2018-04-29T17:09:44.379Z,39.67
2018-04-29T17:14:45.366Z,39.40
2018-04-29T17:19:46.380Z,35.57
2018-04-29T17:24:47.463Z,31.77
2018-04-29T17:29:48.489Z,31.83
2018-04-29T17:34:49.538Z,29.60
2018-04-29T17:39:50.585Z,29.80
2018-04-29T17:44:51.628Z,27.57
2018-04-29T17:49:52.613Z,27.97
2018-04-29T17:54:53.673Z,27.40
2018-04-29T17:59:54.673Z,26.77
2018-04-29T18:04:55.687Z,27.27
2018-04-29T18:09:56.702Z,24.33
2018-04-29T18:14:57.721Z,20.77
2018-04-29T18:19:58.759Z,22.23
2018-04-29T18:24:59.796Z,22.37
2018-04-29T18:30:00.902Z,22.00
2018-04-29T18:35:01.965Z,19.67
2018-04-29T18:40:03.073Z,20.30
2018-04-29T18:45:04.092Z,16.43
2018-04-29T18:50:05.113Z,14.30
2018-04-29T18:55:06.140Z,15.57
2018-04-29T19:00:07.177Z,13.40
2018-04-29T19:05:08.209Z,12.43
2018-04-29T19:10:09.266Z,11.13
2018-04-29T19:15:10.344Z,9.77
2018-04-29T19:20:11.408Z,10.43
2018-04-29T19:25:12.469Z,10.83
2018-04-29T19:30:13.557Z,10.50
2018-04-29T19:35:21.719Z,13.83
2018-04-29T19:40:22.758Z,16.60
2018-04-29T19:45:23.921Z,15.87
2018-04-29T19:50:24.936Z,16.67
2018-04-29T19:55:25.972Z,16.33
2018-04-29T20:00:27.075Z,19.17
2018-04-29T20:05:28.101Z,18.03
2018-04-29T20:10:29.119Z,19.17
2018-04-29T20:15:30.151Z,18.97
2018-04-29T20:20:31.145Z,20.67
2018-04-29T20:25:32.198Z,20.10
2018-04-29T20:30:33.215Z,24.77
2018-04-29T20:35:34.290Z,25.97
2018-04-29T20:40:35.333Z,25.97
2018-04-29T20:45:36.347Z,30.40
2018-04-29T20:50:37.373Z,30.37
2018-04-29T20:55:38.355Z,31.43
2018-04-29T21:00:39.363Z,30.90
2018-04-29T21:05:40.389Z,33.50
2018-04-29T21:10:41.414Z,33.43
2018-04-29T21:15:42.402Z,30.27
2018-04-29T21:20:43.367Z,32.73
2018-04-29T21:25:44.457Z,32.50
2018-04-29T21:30:45.466Z,29.40
2018-04-29T21:35:46.491Z,28.87
2018-04-29T21:40:47.459Z,28.87
2018-04-29T21:45:48.473Z,26.47
2018-04-29T21:50:49.487Z,23.83
2018-04-29T21:55:50.474Z,24.10
2018-04-29T22:00:51.491Z,24.30
2018-04-29T22:05:52.501Z,23.50
2018-04-29T22:10:53.512Z,21.83
2018-04-29T22:15:54.500Z,23.67
2018-04-29T22:20:55.476Z,25.77
2018-04-29T22:25:57.021Z,27.53
2018-04-29T22:30:58.245Z,26.23
2018-04-29T22:35:59.502Z,26.77
2018-04-29T22:41:00.529Z,26.80
2018-04-29T22:46:01.512Z,26.80
2018-04-29T22:51:02.519Z,27.10
2018-04-29T22:56:03.510Z,27.70
2018-04-29T23:01:04.463Z,27.87
2018-04-29T23:06:05.479Z,28.13
2018-04-29T23:11:06.435Z,28.20
2018-04-29T23:16:07.423Z,28.50
2018-04-29T23:21:08.365Z,28.20
2018-04-29T23:26:09.380Z,30.93
2018-04-29T23:31:10.353Z,28.20
2018-04-29T23:36:11.345Z,28.40
2018-04-29T23:41:12.332Z,26.47
2018-04-29T23:46:13.291Z,26.43
2018-04-29T23:51:14.259Z,24.90
2018-04-29T23:56:15.240Z,23.93
